sensor_id;sensor_type;location;lat;lon;timestamp;pressure;altitude;pressure_sealevel;temperature;humidity
63339;BME280;47485;51.378;-1.342;2023-03-04T00:00:51;101626.65;;;5.52;23.03
63339;BME280;47485;51.378;-1.342;2023-03-04T00:03:18;101624.67;;;3.28;23.90
63339;BME280;47485;51.378;-1.342;2023-03-04T00:05:45;101623.65;;;4.04;24.03
63339;BME280;47485;51.378;-1.342;2023-03-04T00:08:12;101625.46;;;4.69;24.27
63339;BME280;47485;51.378;-1.342;2023-03-04T00:10:38;101625.15;;;4.14;23.69
63339;BME280;47485;51.378;-1.342;2023-03-04T00:13:05;101624.72;;;5.91;23.01
63339;BME280;47485;51.378;-1.342;2023-03-04T00:15:32;101619.33;;;3.10;24.48
63339;BME280;47485;51.378;-1.342;2023-03-04T00:17:59;101617.43;;;4.53;23.59
63339;BME280;47485;51.378;-1.342;2023-03-04T00:20:26;101613.67;;;4.73;23.46
63339;BME280;47485;51.378;-1.342;2023-03-04T00:22:53;101613.81;;;5.79;24.01
63339;BME280;47485;51.378;-1.342;2023-03-04T00:25:20;101617.42;;;5.43;23.81
63339;BME280;47485;51.378;-1.342;2023-03-04T00:27:47;101620.33;;;5.66;24.36
63339;BME280;47485;51.378;-1.342;2023-03-04T00:30:14;101624.93;;;4.94;24.07
63339;BME280;47485;51.378;-1.342;2023-03-04T00:32:41;101620.73;;;4.52;24.11
63339;BME280;47485;51.378;-1.342;2023-03-04T00:35:08;101622.14;;;6.22;23.65
63339;BME280;47485;51.378;-1.342;2023-03-04T00:37:35;101626.69;;;6.37;22.69
63339;BME280;47485;51.378;-1.342;2023-03-04T00:40:02;101630.26;;;5.10;23.36
63339;BME280;47485;51.378;-1.342;2023-03-04T00:42:29;101636.52;;;3.44;25.59
63339;BME280;47485;51.378;-1.342;2023-03-04T00:44:56;101637.66;;;2.73;26.07
63339;BME280;47485;51.378;-1.342;2023-03-04T00:47:23;101634.84;;;3.05;25.14
63339;BME280;47485;51.378;-1.342;2023-03-04T00:49:50;101634.08;;;4.46;24.71
63339;BME280;47485;51.378;-1.342;2023-03-04T00:52:17;101634.15;;;4.60;24.81
63339;BME280;47485;51.378;-1.342;2023-03-04T00:54:44;101633.95;;;3.07;25.09
63339;BME280;47485;51.378;-1.342;2023-03-04T00:57:11;101634.45;;;5.53;24.31
63339;BME280;47485;51.378;-1.342;2023-03-04T00:59:38;101635.76;;;4.34;24.49
63339;BME280;47485;51.378;-1.342;2023-03-04T01:02:05;101639.01;;;5.61;23.92
63339;BME280;47485;51.378;-1.342;2023-03-04T01:04:33;101651.71;;;2.72;26.81
63339;BME280;47485;51.378;-1.342;2023-03-04T01:07:00;101646.02;;;3.59;25.16
63339;BME280;47485;51.378;-1.342;2023-03-04T01:09:26;101647.43;;;3.87;25.41
63339;BME280;47485;51.378;-1.342;2023-03-04T01:11:53;101652.08;;;4.03;25.76
63339;BME280;47485;51.378;-1.342;2023-03-04T01:14:20;101648.18;;;4.60;25.59
63339;BME280;47485;51.378;-1.342;2023-03-04T01:16:48;101655.38;;;1.33;27.51
63339;BME280;47485;51.378;-1.342;2023-03-04T01:19:15;101655.57;;;3.65;26.45
63339;BME280;47485;51.378;-1.342;2023-03-04T01:21:41;101655.03;;;1.98;27.80
63339;BME280;47485;51.378;-1.342;2023-03-04T01:24:09;101659.22;;;1.67;27.64
63339;BME280;47485;51.378;-1.342;2023-03-04T01:26:36;101649.84;;;3.15;25.91
63339;BME280;47485;51.378;-1.342;2023-03-04T01:29:03;101647.20;;;4.77;25.58
63339;BME280;47485;51.378;-1.342;2023-03-04T01:31:30;101643.28;;;3.03;25.34
63339;BME280;47485;51.378;-1.342;2023-03-04T01:33:57;101642.82;;;4.22;24.86
63339;BME280;47485;51.378;-1.342;2023-03-04T01:36:24;101638.40;;;4.75;24.80
63339;BME280;47485;51.378;-1.342;2023-03-04T01:38:50;101646.76;;;0.68;27.46
63339;BME280;47485;51.378;-1.342;2023-03-04T01:41:21;101642.79;;;3.33;26.19
63339;BME280;47485;51.378;-1.342;2023-03-04T01:43:49;101642.96;;;3.63;26.24
63339;BME280;47485;51.378;-1.342;2023-03-04T01:46:16;101642.39;;;2.84;26.13
63339;BME280;47485;51.378;-1.342;2023-03-04T01:48:43;101637.30;;;3.39;25.82
63339;BME280;47485;51.378;-1.342;2023-03-04T01:51:14;101631.91;;;2.37;26.10
63339;BME280;47485;51.378;-1.342;2023-03-04T01:53:43;101629.28;;;0.48;26.53
63339;BME280;47485;51.378;-1.342;2023-03-04T01:56:14;101623.14;;;1.75;27.15
63339;BME280;47485;51.378;-1.342;2023-03-04T01:58:42;101613.72;;;4.23;25.31
63339;BME280;47485;51.378;-1.342;2023-03-04T02:01:10;101616.15;;;2.33;26.52
63339;BME280;47485;51.378;-1.342;2023-03-04T02:03:38;101612.72;;;2.71;26.01
63339;BME280;47485;51.378;-1.342;2023-03-04T02:06:05;101607.29;;;2.56;26.08
63339;BME280;47485;51.378;-1.342;2023-03-04T02:08:33;101601.34;;;3.54;25.38
63339;BME280;47485;51.378;-1.342;2023-03-04T02:11:00;101599.66;;;3.28;25.06
63339;BME280;47485;51.378;-1.342;2023-03-04T02:13:27;101597.68;;;4.08;25.40
63339;BME280;47485;51.378;-1.342;2023-03-04T02:15:54;101596.57;;;4.26;25.68
63339;BME280;47485;51.378;-1.342;2023-03-04T02:18:22;101591.53;;;3.17;25.37
63339;BME280;47485;51.378;-1.342;2023-03-04T02:20:57;101586.11;;;4.29;24.63
63339;BME280;47485;51.378;-1.342;2023-03-04T02:23:34;101585.63;;;3.92;25.52
63339;BME280;47485;51.378;-1.342;2023-03-04T02:26:21;101588.02;;;1.17;27.03
63339;BME280;47485;51.378;-1.342;2023-03-04T02:28:50;101584.75;;;4.09;26.13
63339;BME280;47485;51.378;-1.342;2023-03-04T02:31:23;101588.63;;;3.09;27.11
63339;BME280;47485;51.378;-1.342;2023-03-04T02:33:53;101588.72;;;1.99;27.45
63339;BME280;47485;51.378;-1.342;2023-03-04T02:36:21;101589.52;;;1.33;27.28
63339;BME280;47485;51.378;-1.342;2023-03-04T02:38:48;101588.21;;;2.40;26.25
63339;BME280;47485;51.378;-1.342;2023-03-04T02:41:18;101583.65;;;4.55;25.48
63339;BME280;47485;51.378;-1.342;2023-03-04T02:43:49;101583.39;;;3.82;24.82
63339;BME280;47485;51.378;-1.342;2023-03-04T02:46:16;101580.25;;;3.27;25.41
63339;BME280;47485;51.378;-1.342;2023-03-04T02:48:44;101581.23;;;2.85;25.87
63339;BME280;47485;51.378;-1.342;2023-03-04T02:51:11;101580.39;;;4.79;24.82
63339;BME280;47485;51.378;-1.342;2023-03-04T02:53:38;101579.12;;;3.50;25.65
63339;BME280;47485;51.378;-1.342;2023-03-04T02:56:05;101576.88;;;4.00;24.93
63339;BME280;47485;51.378;-1.342;2023-03-04T02:58:32;101579.80;;;4.74;24.87
63339;BME280;47485;51.378;-1.342;2023-03-04T03:00:59;101587.60;;;2.02;26.18
63339;BME280;47485;51.378;-1.342;2023-03-04T03:03:27;101580.98;;;3.46;24.95
63339;BME280;47485;51.378;-1.342;2023-03-04T03:05:55;101580.26;;;2.86;26.21
63339;BME280;47485;51.378;-1.342;2023-03-04T03:08:21;101579.47;;;4.05;25.46
63339;BME280;47485;51.378;-1.342;2023-03-04T03:10:48;101579.21;;;4.05;25.84
63339;BME280;47485;51.378;-1.342;2023-03-04T03:13:15;101575.16;;;3.70;25.41
63339;BME280;47485;51.378;-1.342;2023-03-04T03:15:42;101576.86;;;3.24;25.93
63339;BME280;47485;51.378;-1.342;2023-03-04T03:18:09;101578.46;;;2.16;25.83
63339;BME280;47485;51.378;-1.342;2023-03-04T03:20:35;101584.67;;;0.58;26.52
63339;BME280;47485;51.378;-1.342;2023-03-04T03:23:03;101577.87;;;4.62;25.29
63339;BME280;47485;51.378;-1.342;2023-03-04T03:25:30;101579.45;;;4.37;25.44
63339;BME280;47485;51.378;-1.342;2023-03-04T03:27:56;101587.51;;;1.22;27.41
63339;BME280;47485;51.378;-1.342;2023-03-04T03:30:23;101582.83;;;2.88;26.98
63339;BME280;47485;51.378;-1.342;2023-03-04T03:32:50;101587.27;;;2.22;27.44
63339;BME280;47485;51.378;-1.342;2023-03-04T03:35:17;101583.99;;;3.88;27.69
63339;BME280;47485;51.378;-1.342;2023-03-04T03:37:44;101583.60;;;2.23;27.38
63339;BME280;47485;51.378;-1.342;2023-03-04T03:40:12;101588.69;;;0.64;27.73
63339;BME280;47485;51.378;-1.342;2023-03-04T03:42:38;101581.30;;;2.75;26.30
63339;BME280;47485;51.378;-1.342;2023-03-04T03:45:07;101579.55;;;3.90;26.57
63339;BME280;47485;51.378;-1.342;2023-03-04T03:47:35;101584.47;;;-2.01;31.16
63339;BME280;47485;51.378;-1.342;2023-03-04T03:50:02;101576.10;;;3.71;27.32
63339;BME280;47485;51.378;-1.342;2023-03-04T03:52:29;101577.83;;;1.43;28.36
63339;BME280;47485;51.378;-1.342;2023-03-04T03:54:56;101576.27;;;3.05;27.28
63339;BME280;47485;51.378;-1.342;2023-03-04T03:57:22;101575.23;;;4.19;26.80
63339;BME280;47485;51.378;-1.342;2023-03-04T03:59:49;101576.74;;;1.99;28.00
63339;BME280;47485;51.378;-1.342;2023-03-04T04:02:16;101573.47;;;3.04;26.40
63339;BME280;47485;51.378;-1.342;2023-03-04T04:04:43;101581.21;;;1.36;27.80
63339;BME280;47485;51.378;-1.342;2023-03-04T04:07:10;101583.73;;;2.94;27.05
63339;BME280;47485;51.378;-1.342;2023-03-04T04:09:36;101578.86;;;3.99;26.54
63339;BME280;47485;51.378;-1.342;2023-03-04T04:12:04;101580.15;;;2.19;26.69
63339;BME280;47485;51.378;-1.342;2023-03-04T04:14:31;101578.99;;;3.44;25.90
63339;BME280;47485;51.378;-1.342;2023-03-04T04:16:58;101584.18;;;0.91;28.58
63339;BME280;47485;51.378;-1.342;2023-03-04T04:19:25;101580.22;;;2.46;26.47
63339;BME280;47485;51.378;-1.342;2023-03-04T04:21:51;101582.27;;;-0.05;27.87
63339;BME280;47485;51.378;-1.342;2023-03-04T04:24:18;101587.92;;;2.11;27.33
63339;BME280;47485;51.378;-1.342;2023-03-04T04:26:45;101585.76;;;2.99;26.20
63339;BME280;47485;51.378;-1.342;2023-03-04T04:29:13;101586.15;;;2.27;26.09
63339;BME280;47485;51.378;-1.342;2023-03-04T04:31:40;101585.69;;;1.67;25.79
63339;BME280;47485;51.378;-1.342;2023-03-04T04:34:07;101589.45;;;2.97;26.57
63339;BME280;47485;51.378;-1.342;2023-03-04T04:36:34;101589.72;;;3.92;25.25
63339;BME280;47485;51.378;-1.342;2023-03-04T04:39:02;101596.32;;;3.87;25.28
63339;BME280;47485;51.378;-1.342;2023-03-04T04:41:33;101597.24;;;4.55;25.13
63339;BME280;47485;51.378;-1.342;2023-03-04T04:44:02;101596.92;;;4.28;24.56
63339;BME280;47485;51.378;-1.342;2023-03-04T04:46:29;101600.01;;;4.51;24.68
63339;BME280;47485;51.378;-1.342;2023-03-04T04:48:56;101601.66;;;2.43;25.51
63339;BME280;47485;51.378;-1.342;2023-03-04T04:51:23;101602.85;;;4.91;24.82
63339;BME280;47485;51.378;-1.342;2023-03-04T04:53:50;101604.95;;;4.06;25.11
63339;BME280;47485;51.378;-1.342;2023-03-04T04:56:19;101603.67;;;3.09;26.00
63339;BME280;47485;51.378;-1.342;2023-03-04T04:58:46;101599.16;;;5.42;24.46
63339;BME280;47485;51.378;-1.342;2023-03-04T05:01:14;101600.07;;;4.27;24.71
63339;BME280;47485;51.378;-1.342;2023-03-04T05:03:41;101608.05;;;0.92;28.29
63339;BME280;47485;51.378;-1.342;2023-03-04T05:06:10;101605.53;;;2.53;26.33
63339;BME280;47485;51.378;-1.342;2023-03-04T05:08:38;101601.09;;;3.47;25.33
63339;BME280;47485;51.378;-1.342;2023-03-04T05:11:06;101608.52;;;1.32;27.15
63339;BME280;47485;51.378;-1.342;2023-03-04T05:13:34;101598.94;;;4.25;25.15
63339;BME280;47485;51.378;-1.342;2023-03-04T05:16:01;101601.91;;;2.28;25.72
63339;BME280;47485;51.378;-1.342;2023-03-04T05:18:28;101598.02;;;3.98;24.81
63339;BME280;47485;51.378;-1.342;2023-03-04T05:20:57;101599.28;;;5.44;23.71
63339;BME280;47485;51.378;-1.342;2023-03-04T05:23:25;101598.40;;;4.91;23.64
63339;BME280;47485;51.378;-1.342;2023-03-04T05:25:53;101599.56;;;5.32;23.97
63339;BME280;47485;51.378;-1.342;2023-03-04T05:28:20;101602.97;;;4.76;24.58
63339;BME280;47485;51.378;-1.342;2023-03-04T05:30:47;101602.87;;;3.43;25.46
63339;BME280;47485;51.378;-1.342;2023-03-04T05:33:16;101609.12;;;3.85;25.05
63339;BME280;47485;51.378;-1.342;2023-03-04T05:35:44;101603.81;;;3.26;25.59
63339;BME280;47485;51.378;-1.342;2023-03-04T05:38:12;101607.54;;;4.15;25.21
63339;BME280;47485;51.378;-1.342;2023-03-04T05:40:41;101614.01;;;0.95;28.13
63339;BME280;47485;51.378;-1.342;2023-03-04T05:43:08;101613.51;;;0.97;26.72
63339;BME280;47485;51.378;-1.342;2023-03-04T05:45:36;101609.05;;;2.67;26.46
63339;BME280;47485;51.378;-1.342;2023-03-04T05:48:04;101605.44;;;4.62;25.58
63339;BME280;47485;51.378;-1.342;2023-03-04T05:50:31;101605.79;;;2.87;25.25
63339;BME280;47485;51.378;-1.342;2023-03-04T05:52:59;101612.16;;;2.51;26.72
63339;BME280;47485;51.378;-1.342;2023-03-04T05:55:26;101605.52;;;4.66;25.07
63339;BME280;47485;51.378;-1.342;2023-03-04T05:57:53;101607.37;;;4.25;25.01
63339;BME280;47485;51.378;-1.342;2023-03-04T06:00:20;101615.90;;;1.70;26.92
63339;BME280;47485;51.378;-1.342;2023-03-04T06:02:47;101607.59;;;5.88;25.21
63339;BME280;47485;51.378;-1.342;2023-03-04T06:05:14;101615.09;;;1.63;26.48
63339;BME280;47485;51.378;-1.342;2023-03-04T06:07:42;101614.84;;;2.81;26.42
63339;BME280;47485;51.378;-1.342;2023-03-04T06:10:13;101612.41;;;4.57;25.16
63339;BME280;47485;51.378;-1.342;2023-03-04T06:12:41;101615.70;;;2.01;26.54
63339;BME280;47485;51.378;-1.342;2023-03-04T06:15:08;101612.74;;;2.91;26.23
63339;BME280;47485;51.378;-1.342;2023-03-04T06:17:36;101606.41;;;3.17;25.61
63339;BME280;47485;51.378;-1.342;2023-03-04T06:20:03;101607.19;;;3.98;25.57
63339;BME280;47485;51.378;-1.342;2023-03-04T06:22:30;101611.66;;;1.47;27.08
63339;BME280;47485;51.378;-1.342;2023-03-04T06:24:57;101609.96;;;4.69;24.99
63339;BME280;47485;51.378;-1.342;2023-03-04T06:27:24;101613.58;;;1.65;25.93
63339;BME280;47485;51.378;-1.342;2023-03-04T06:29:50;101617.30;;;2.07;26.02
63339;BME280;47485;51.378;-1.342;2023-03-04T06:32:17;101610.22;;;3.78;24.43
63339;BME280;47485;51.378;-1.342;2023-03-04T06:34:43;101622.11;;;-0.55;28.17
63339;BME280;47485;51.378;-1.342;2023-03-04T06:37:10;101626.55;;;0.11;29.23
63339;BME280;47485;51.378;-1.342;2023-03-04T06:39:37;101624.85;;;0.59;29.38
63339;BME280;47485;51.378;-1.342;2023-03-04T06:42:04;101623.97;;;0.91;29.81
63339;BME280;47485;51.378;-1.342;2023-03-04T06:44:31;101628.13;;;-0.28;30.93
63339;BME280;47485;51.378;-1.342;2023-03-04T06:46:58;101624.29;;;0.76;28.96
63339;BME280;47485;51.378;-1.342;2023-03-04T06:49:25;101627.24;;;0.53;28.46
63339;BME280;47485;51.378;-1.342;2023-03-04T06:51:53;101628.84;;;0.95;27.64
63339;BME280;47485;51.378;-1.342;2023-03-04T06:54:20;101623.88;;;2.84;25.76
63339;BME280;47485;51.378;-1.342;2023-03-04T06:56:47;101625.93;;;3.37;25.48
63339;BME280;47485;51.378;-1.342;2023-03-04T06:59:15;101631.47;;;1.30;26.70
63339;BME280;47485;51.378;-1.342;2023-03-04T07:01:42;101634.17;;;2.19;26.08
63339;BME280;47485;51.378;-1.342;2023-03-04T07:04:10;101634.18;;;3.52;25.57
63339;BME280;47485;51.378;-1.342;2023-03-04T07:06:39;101642.20;;;1.94;25.60
63339;BME280;47485;51.378;-1.342;2023-03-04T07:09:05;101649.32;;;2.00;25.60
63339;BME280;47485;51.378;-1.342;2023-03-04T07:11:32;101650.71;;;2.50;25.72
63339;BME280;47485;51.378;-1.342;2023-03-04T07:13:59;101645.91;;;5.10;24.00
63339;BME280;47485;51.378;-1.342;2023-03-04T07:16:27;101651.60;;;3.77;24.63
63339;BME280;47485;51.378;-1.342;2023-03-04T07:18:54;101657.50;;;2.67;26.40
63339;BME280;47485;51.378;-1.342;2023-03-04T07:21:21;101659.47;;;3.50;25.35
63339;BME280;47485;51.378;-1.342;2023-03-04T07:23:48;101665.28;;;-0.20;28.29
63339;BME280;47485;51.378;-1.342;2023-03-04T07:26:15;101666.80;;;2.64;26.62
63339;BME280;47485;51.378;-1.342;2023-03-04T07:28:42;101670.46;;;2.59;26.68
63339;BME280;47485;51.378;-1.342;2023-03-04T07:31:10;101671.98;;;-0.59;28.77
63339;BME280;47485;51.378;-1.342;2023-03-04T07:33:37;101672.18;;;0.78;27.92
63339;BME280;47485;51.378;-1.342;2023-03-04T07:36:05;101668.29;;;0.89;27.68
63339;BME280;47485;51.378;-1.342;2023-03-04T07:38:32;101669.30;;;-1.57;30.05
63339;BME280;47485;51.378;-1.342;2023-03-04T07:40:59;101669.16;;;1.98;27.32
63339;BME280;47485;51.378;-1.342;2023-03-04T07:43:26;101671.23;;;1.17;28.45
63339;BME280;47485;51.378;-1.342;2023-03-04T07:45:58;101667.85;;;2.18;26.65
63339;BME280;47485;51.378;-1.342;2023-03-04T07:48:25;101668.13;;;0.86;28.81
63339;BME280;47485;51.378;-1.342;2023-03-04T07:51:01;101667.88;;;1.60;27.85
63339;BME280;47485;51.378;-1.342;2023-03-04T07:53:30;101669.51;;;4.42;26.22
63339;BME280;47485;51.378;-1.342;2023-03-04T07:55:57;101672.11;;;3.94;26.25
63339;BME280;47485;51.378;-1.342;2023-03-04T07:58:24;101673.18;;;1.15;26.61
63339;BME280;47485;51.378;-1.342;2023-03-04T08:00:51;101671.57;;;2.79;26.51
63339;BME280;47485;51.378;-1.342;2023-03-04T08:03:18;101666.02;;;0.90;27.66
63339;BME280;47485;51.378;-1.342;2023-03-04T08:05:45;101668.42;;;3.47;26.20
63339;BME280;47485;51.378;-1.342;2023-03-04T08:08:12;101668.41;;;1.87;27.51
63339;BME280;47485;51.378;-1.342;2023-03-04T08:10:40;101671.95;;;2.62;26.73
63339;BME280;47485;51.378;-1.342;2023-03-04T08:13:07;101669.05;;;2.56;27.09
63339;BME280;47485;51.378;-1.342;2023-03-04T08:15:38;101670.51;;;2.37;27.32
63339;BME280;47485;51.378;-1.342;2023-03-04T08:18:05;101669.83;;;2.21;26.61
63339;BME280;47485;51.378;-1.342;2023-03-04T08:20:32;101674.12;;;1.49;27.71
63339;BME280;47485;51.378;-1.342;2023-03-04T08:23:00;101672.49;;;4.84;25.75
63339;BME280;47485;51.378;-1.342;2023-03-04T08:25:27;101675.68;;;-1.14;30.40
63339;BME280;47485;51.378;-1.342;2023-03-04T08:27:55;101671.81;;;3.00;27.17
63339;BME280;47485;51.378;-1.342;2023-03-04T08:30:24;101675.11;;;3.22;26.30
63339;BME280;47485;51.378;-1.342;2023-03-04T08:32:51;101669.22;;;3.64;25.53
63339;BME280;47485;51.378;-1.342;2023-03-04T08:35:18;101668.78;;;4.38;25.56
63339;BME280;47485;51.378;-1.342;2023-03-04T08:37:45;101669.01;;;3.42;25.35
63339;BME280;47485;51.378;-1.342;2023-03-04T08:40:13;101674.41;;;0.83;26.83
63339;BME280;47485;51.378;-1.342;2023-03-04T08:42:40;101674.63;;;1.54;26.81
63339;BME280;47485;51.378;-1.342;2023-03-04T08:45:08;101676.04;;;2.10;25.92
63339;BME280;47485;51.378;-1.342;2023-03-04T08:47:36;101674.90;;;3.12;25.83
63339;BME280;47485;51.378;-1.342;2023-03-04T08:50:04;101670.47;;;3.25;25.35
63339;BME280;47485;51.378;-1.342;2023-03-04T08:52:32;101678.48;;;3.31;26.80
63339;BME280;47485;51.378;-1.342;2023-03-04T08:54:59;101679.68;;;3.05;26.91
63339;BME280;47485;51.378;-1.342;2023-03-04T08:57:25;101684.09;;;0.68;27.81
63339;BME280;47485;51.378;-1.342;2023-03-04T08:59:52;101686.60;;;3.04;26.29
63339;BME280;47485;51.378;-1.342;2023-03-04T09:02:21;101689.77;;;1.12;26.56
63339;BME280;47485;51.378;-1.342;2023-03-04T09:04:47;101689.90;;;4.08;25.68
63339;BME280;47485;51.378;-1.342;2023-03-04T09:07:14;101690.68;;;1.21;27.51
63339;BME280;47485;51.378;-1.342;2023-03-04T09:09:41;101694.53;;;3.33;27.28
63339;BME280;47485;51.378;-1.342;2023-03-04T09:12:08;101689.40;;;1.67;26.69
63339;BME280;47485;51.378;-1.342;2023-03-04T09:14:35;101692.60;;;2.75;26.70
63339;BME280;47485;51.378;-1.342;2023-03-04T09:17:02;101692.95;;;-0.93;29.94
63339;BME280;47485;51.378;-1.342;2023-03-04T09:19:29;101696.27;;;0.27;30.38
63339;BME280;47485;51.378;-1.342;2023-03-04T09:21:56;101697.92;;;0.18;29.92
63339;BME280;47485;51.378;-1.342;2023-03-04T09:24:23;101699.08;;;0.22;28.32
63339;BME280;47485;51.378;-1.342;2023-03-04T09:26:50;101700.47;;;1.91;28.26
63339;BME280;47485;51.378;-1.342;2023-03-04T09:29:17;101694.43;;;2.11;27.85
63339;BME280;47485;51.378;-1.342;2023-03-04T09:31:44;101693.74;;;1.23;28.20
63339;BME280;47485;51.378;-1.342;2023-03-04T09:34:11;101692.60;;;3.15;26.13
63339;BME280;47485;51.378;-1.342;2023-03-04T09:36:38;101690.66;;;4.48;25.93
63339;BME280;47485;51.378;-1.342;2023-03-04T09:39:05;101692.23;;;3.21;26.41
63339;BME280;47485;51.378;-1.342;2023-03-04T09:41:37;101684.37;;;3.96;25.29
63339;BME280;47485;51.378;-1.342;2023-03-04T09:44:11;101690.48;;;1.61;26.04
63339;BME280;47485;51.378;-1.342;2023-03-04T09:46:40;101690.22;;;2.15;27.75
63339;BME280;47485;51.378;-1.342;2023-03-04T09:49:09;101687.40;;;1.07;27.89
63339;BME280;47485;51.378;-1.342;2023-03-04T09:51:44;101688.10;;;3.72;26.07
63339;BME280;47485;51.378;-1.342;2023-03-04T09:54:19;101690.30;;;3.31;25.86
63339;BME280;47485;51.378;-1.342;2023-03-04T09:56:58;101683.66;;;2.47;25.34
63339;BME280;47485;51.378;-1.342;2023-03-04T09:59:29;101688.55;;;2.77;25.87
63339;BME280;47485;51.378;-1.342;2023-03-04T10:02:00;101690.04;;;1.94;26.05
63339;BME280;47485;51.378;-1.342;2023-03-04T10:04:35;101688.80;;;2.44;26.27
63339;BME280;47485;51.378;-1.342;2023-03-04T10:07:07;101683.37;;;4.16;24.96
63339;BME280;47485;51.378;-1.342;2023-03-04T10:09:45;101677.62;;;4.05;24.45
63339;BME280;47485;51.378;-1.342;2023-03-04T10:12:15;101679.71;;;2.84;25.47
63339;BME280;47485;51.378;-1.342;2023-03-04T10:14:48;101682.67;;;3.55;25.65
63339;BME280;47485;51.378;-1.342;2023-03-04T10:17:21;101688.26;;;2.23;27.08
63339;BME280;47485;51.378;-1.342;2023-03-04T10:19:55;101687.36;;;1.88;27.43
63339;BME280;47485;51.378;-1.342;2023-03-04T10:22:28;101685.83;;;2.44;26.61
63339;BME280;47485;51.378;-1.342;2023-03-04T10:25:01;101687.88;;;1.34;28.10
63339;BME280;47485;51.378;-1.342;2023-03-04T10:27:33;101680.90;;;3.49;25.86
63339;BME280;47485;51.378;-1.342;2023-03-04T10:30:00;101684.12;;;1.63;27.52
63339;BME280;47485;51.378;-1.342;2023-03-04T10:32:27;101679.52;;;2.81;26.69
63339;BME280;47485;51.378;-1.342;2023-03-04T10:34:54;101675.69;;;2.59;27.22
63339;BME280;47485;51.378;-1.342;2023-03-04T10:37:21;101675.28;;;2.14;26.83
63339;BME280;47485;51.378;-1.342;2023-03-04T10:39:48;101668.13;;;6.36;25.09
63339;BME280;47485;51.378;-1.342;2023-03-04T10:42:27;101676.07;;;-1.44;30.60
63339;BME280;47485;51.378;-1.342;2023-03-04T10:44:58;101674.08;;;4.01;27.37
63339;BME280;47485;51.378;-1.342;2023-03-04T10:47:28;101670.22;;;3.72;27.89
63339;BME280;47485;51.378;-1.342;2023-03-04T10:49:57;101672.90;;;1.91;27.19
63339;BME280;47485;51.378;-1.342;2023-03-04T10:52:28;101673.39;;;1.01;28.37
63339;BME280;47485;51.378;-1.342;2023-03-04T10:54:58;101668.45;;;2.17;27.16
63339;BME280;47485;51.378;-1.342;2023-03-04T10:57:32;101662.56;;;3.36;25.89
63339;BME280;47485;51.378;-1.342;2023-03-04T11:00:00;101662.22;;;-0.23;28.20
63339;BME280;47485;51.378;-1.342;2023-03-04T11:02:29;101657.74;;;1.43;26.51
63339;BME280;47485;51.378;-1.342;2023-03-04T11:05:06;101652.61;;;4.41;25.21
63339;BME280;47485;51.378;-1.342;2023-03-04T11:07:38;101653.49;;;2.52;26.79
63339;BME280;47485;51.378;-1.342;2023-03-04T11:10:09;101652.61;;;3.79;26.93
63339;BME280;47485;51.378;-1.342;2023-03-04T11:12:37;101656.29;;;2.05;27.73
63339;BME280;47485;51.378;-1.342;2023-03-04T11:15:16;101651.73;;;2.01;26.66
63339;BME280;47485;51.378;-1.342;2023-03-04T11:17:47;101651.60;;;3.73;25.86
63339;BME280;47485;51.378;-1.342;2023-03-04T11:20:24;101656.84;;;1.09;29.04
63339;BME280;47485;51.378;-1.342;2023-03-04T11:22:56;101656.61;;;1.36;29.45
63339;BME280;47485;51.378;-1.342;2023-03-04T11:25:30;101663.28;;;-3.60;34.13
63339;BME280;47485;51.378;-1.342;2023-03-04T11:28:02;101657.64;;;-1.47;31.10
63339;BME280;47485;51.378;-1.342;2023-03-04T11:30:37;101652.89;;;0.14;30.49
63339;BME280;47485;51.378;-1.342;2023-03-04T11:33:15;101653.02;;;-0.84;30.85
63339;BME280;47485;51.378;-1.342;2023-03-04T11:35:52;101649.76;;;-0.97;30.29
63339;BME280;47485;51.378;-1.342;2023-03-04T11:38:23;101653.16;;;-2.17;32.33
63339;BME280;47485;51.378;-1.342;2023-03-04T11:40:56;101642.80;;;0.37;28.60
63339;BME280;47485;51.378;-1.342;2023-03-04T11:43:27;101637.53;;;2.10;28.93
63339;BME280;47485;51.378;-1.342;2023-03-04T11:46:08;101638.70;;;0.82;29.07
63339;BME280;47485;51.378;-1.342;2023-03-04T11:48:48;101629.30;;;2.12;28.30
63339;BME280;47485;51.378;-1.342;2023-03-04T11:51:23;101627.77;;;1.76;28.36
63339;BME280;47485;51.378;-1.342;2023-03-04T11:54:01;101636.28;;;-2.65;31.61
63339;BME280;47485;51.378;-1.342;2023-03-04T11:56:34;101630.13;;;-3.05;32.51
63339;BME280;47485;51.378;-1.342;2023-03-04T11:59:16;101630.23;;;-2.24;32.37
63339;BME280;47485;51.378;-1.342;2023-03-04T12:01:56;101625.56;;;-0.65;30.20
63339;BME280;47485;51.378;-1.342;2023-03-04T12:04:38;101627.12;;;-2.37;33.02
63339;BME280;47485;51.378;-1.342;2023-03-04T12:07:21;101618.00;;;-2.78;32.49
63339;BME280;47485;51.378;-1.342;2023-03-04T12:10:04;101616.55;;;-1.70;32.38
63339;BME280;47485;51.378;-1.342;2023-03-04T12:12:48;101606.61;;;-0.10;30.44
63339;BME280;47485;51.378;-1.342;2023-03-04T12:15:23;101602.46;;;0.34;29.53
63339;BME280;47485;51.378;-1.342;2023-03-04T12:18:04;101607.62;;;-1.60;32.26
63339;BME280;47485;51.378;-1.342;2023-03-04T12:20:43;101593.59;;;2.01;27.52
63339;BME280;47485;51.378;-1.342;2023-03-04T12:23:21;101590.76;;;-0.95;30.46
63339;BME280;47485;51.378;-1.342;2023-03-04T12:25:59;101594.14;;;-2.28;32.37
63339;BME280;47485;51.378;-1.342;2023-03-04T12:28:37;101588.78;;;-0.28;30.22
63339;BME280;47485;51.378;-1.342;2023-03-04T12:31:24;101593.09;;;0.10;30.61
63339;BME280;47485;51.378;-1.342;2023-03-04T12:34:08;101595.64;;;-0.75;30.97
63339;BME280;47485;51.378;-1.342;2023-03-04T12:36:48;101586.32;;;1.20;28.26
63339;BME280;47485;51.378;-1.342;2023-03-04T12:39:27;101585.78;;;1.19;28.14
63339;BME280;47485;51.378;-1.342;2023-03-04T12:42:05;101583.59;;;1.28;28.98
63339;BME280;47485;51.378;-1.342;2023-03-04T12:44:37;101580.67;;;4.00;27.32
63339;BME280;47485;51.378;-1.342;2023-03-04T12:47:16;101577.52;;;1.12;28.35
63339;BME280;47485;51.378;-1.342;2023-03-04T12:49:59;101574.19;;;-0.72;29.46
63339;BME280;47485;51.378;-1.342;2023-03-04T12:52:42;101570.21;;;1.33;28.50
63339;BME280;47485;51.378;-1.342;2023-03-04T12:55:14;101565.95;;;-0.07;29.34
63339;BME280;47485;51.378;-1.342;2023-03-04T12:57:42;101561.52;;;0.98;28.91